Time;durP1;ratioP1;P1;durP2;ratioP2;P2;SDS_P1;SDS_P2;PMS_P1;PMS_P2;Temp;Humidity;BMP_temperature;BMP_pressure;BME280_temperature;BME280_humidity;BME280_pressure;Samples;Min_cycle;Max_cycle;Signal;HPM_P1;HPM_P2
2021/08/10 00:00:09;;;;;;;3.80;1.90;;;16.30;90.70;;;;;;2033022;29;20119;-92
2021/08/10 00:01:10;;;;;;;2.88;1.83;;;16.30;90.70;;;;;;2041634;28;20035;-92
2021/08/10 00:02:11;;;;;;;2.85;1.85;;;16.30;90.70;;;;;;2049399;28;20126;-92
2021/08/10 00:03:11;;;;;;;2.92;1.70;;;16.30;90.70;;;;;;2041471;29;20047;-93
2021/08/10 00:04:12;;;;;;;3.53;1.90;;;16.30;90.70;;;;;;2057423;28;20129;-92
2021/08/10 00:05:12;;;;;;;2.67;1.70;;;16.30;90.70;;;;;;2046109;28;20043;-93
2021/08/10 00:06:13;;;;;;;4.05;1.85;;;16.30;90.70;;;;;;2049567;28;20088;-92
2021/08/10 00:07:14;;;;;;;3.63;1.70;;;16.30;90.70;;;;;;2057117;28;20545;-92
2021/08/10 00:08:16;;;;;;;4.00;2.15;;;16.30;91.00;;;;;;2057377;28;20059;-92
2021/08/10 00:09:16;;;;;;;2.50;1.80;;;16.30;90.70;;;;;;2044212;28;20043;-93
2021/08/10 00:10:17;;;;;;;3.47;1.88;;;16.30;90.70;;;;;;2041418;29;20068;-92
2021/08/10 00:11:19;;;;;;;2.97;1.80;;;16.30;90.70;;;;;;2042132;29;20049;-92
2021/08/10 00:12:21;;;;;;;2.85;1.88;;;16.30;90.70;;;;;;2035010;29;20115;-92
2021/08/10 00:13:23;;;;;;;3.60;1.60;;;16.30;90.70;;;;;;2041710;29;20083;-92
2021/08/10 00:14:24;;;;;;;3.45;1.98;;;16.30;90.80;;;;;;2044121;28;20042;-92
2021/08/10 00:15:25;;;;;;;3.03;1.73;;;16.30;91.00;;;;;;2060724;28;20078;-92
2021/08/10 00:16:27;;;;;;;2.72;1.77;;;16.20;90.80;;;;;;2060830;28;20041;-93
2021/08/10 00:17:28;;;;;;;3.20;2.00;;;16.20;90.70;;;;;;2051957;28;20034;-92
2021/08/10 00:18:28;;;;;;;2.88;1.83;;;16.30;90.70;;;;;;2060386;28;20027;-92
2021/08/10 00:19:29;;;;;;;2.50;1.67;;;16.20;90.70;;;;;;2044625;29;20090;-92
2021/08/10 00:20:30;;;;;;;2.97;1.83;;;16.20;90.80;;;;;;2051171;28;20126;-92
2021/08/10 00:21:30;;;;;;;3.20;1.80;;;16.20;90.80;;;;;;2053006;29;20035;-92
2021/08/10 00:22:31;;;;;;;2.70;1.60;;;16.20;90.80;;;;;;2045057;29;20585;-92
2021/08/10 00:23:32;;;;;;;3.55;1.80;;;16.20;90.80;;;;;;2057551;28;20039;-92
2021/08/10 00:24:32;;;;;;;2.63;1.40;;;16.20;90.80;;;;;;2052729;29;20044;-91
2021/08/10 00:25:33;;;;;;;2.75;1.73;;;16.20;90.80;;;;;;2043523;28;20051;-92
2021/08/10 00:26:34;;;;;;;3.22;1.80;;;16.20;90.80;;;;;;2052553;28;20047;-92
2021/08/10 00:27:34;;;;;;;3.78;1.77;;;16.20;90.80;;;;;;2044920;29;20076;-91
2021/08/10 00:28:43;;;;;;;2.88;1.70;;;16.20;90.80;;;;;;2050763;28;20032;-92
2021/08/10 00:29:44;;;;;;;2.80;1.70;;;16.20;90.80;;;;;;2061117;28;20043;-93
2021/08/10 00:30:46;;;;;;;3.15;1.90;;;16.10;90.80;;;;;;2041718;29;20036;-93
2021/08/10 00:32:07;;;;;;;4.20;2.08;;;16.10;90.80;;;;;;2050228;28;20039;-92
2021/08/10 00:33:27;;;;;;;3.35;1.88;;;16.10;90.80;;;;;;2059269;28;20125;-91
2021/08/10 00:34:38;;;;;;;3.20;1.77;;;16.10;90.80;;;;;;2054415;28;20039;-93
2021/08/10 00:35:44;;;;;;;2.80;1.70;;;16.10;90.70;;;;;;2058124;28;20038;-93
2021/08/10 00:36:45;;;;;;;3.33;1.88;;;16.10;90.80;;;;;;2056853;28;20059;-92
2021/08/10 00:37:51;;;;;;;3.40;1.73;;;16.10;90.80;;;;;;2047727;28;20032;-91
2021/08/10 00:39:17;;;;;;;3.00;1.90;;;16.10;90.80;;;;;;2053127;28;20071;-93
2021/08/10 00:40:39;;;;;;;4.40;2.00;;;16.00;90.80;;;;;;2051682;29;20035;-92
2021/08/10 00:41:40;;;;;;;3.75;2.10;;;16.00;90.80;;;;;;2054288;28;20038;-91
2021/08/10 00:42:52;;;;;;;4.05;1.90;;;16.00;90.80;;;;;;2066378;28;20042;-93
2021/08/10 00:44:03;;;;;;;3.30;1.60;;;16.00;90.80;;;;;;2074712;28;20130;-92
2021/08/10 00:45:22;;;;;;;3.80;1.98;;;16.00;90.80;;;;;;2057625;29;20039;-90
2021/08/10 00:46:34;;;;;;;3.15;1.90;;;16.00;90.80;;;;;;2038534;29;20040;-92
2021/08/10 00:47:46;;;;;;;2.88;1.80;;;16.00;90.80;;;;;;2048399;29;20044;-94
2021/08/10 00:48:54;;;;;;;2.90;1.70;;;16.00;90.80;;;;;;2048502;29;20035;-91
2021/08/10 00:50:00;;;;;;;3.33;1.90;;;16.00;90.80;;;;;;2057584;28;20031;-91
2021/08/10 00:51:30;;;;;;;;;;;;;;;;;;;;;
2021/08/10 00:52:34;;;;;;;2.97;1.88;;;16.00;90.80;;;;;;2054074;28;20031;-93
2021/08/10 00:53:46;;;;;;;2.42;1.70;;;16.00;90.80;;;;;;2033718;29;20075;-92
2021/08/10 00:54:52;;;;;;;2.65;1.80;;;16.00;90.80;;;;;;2036348;29;20107;-93
2021/08/10 00:56:00;;;;;;;2.70;1.58;;;16.00;90.80;;;;;;2051838;28;20028;-92
2021/08/10 00:57:17;;;;;;;2.63;1.63;;;16.00;90.80;;;;;;2066572;28;20077;-93
2021/08/10 00:58:18;;;;;;;2.97;1.77;;;15.90;90.80;;;;;;2075178;28;20042;-90
2021/08/10 00:59:19;;;;;;;2.55;1.70;;;16.00;90.80;;;;;;2058146;28;20090;-91
2021/08/10 01:00:19;;;;;;;3.00;1.75;;;15.90;90.80;;;;;;2057493;28;20035;-90
2021/08/10 01:01:20;;;;;;;3.90;2.10;;;16.00;90.80;;;;;;2057659;28;20034;-90
2021/08/10 01:02:21;;;;;;;2.15;1.60;;;15.90;90.80;;;;;;2060640;28;20066;-90
2021/08/10 01:03:22;;;;;;;2.53;1.77;;;15.90;90.80;;;;;;2064919;28;20448;-90
2021/08/10 01:04:22;;;;;;;3.22;1.90;;;15.90;90.90;;;;;;2041874;29;20044;-90
2021/08/10 01:05:24;;;;;;;2.65;1.80;;;16.00;90.90;;;;;;2056485;28;20122;-90
2021/08/10 01:06:35;;;;;;;2.92;1.90;;;15.90;90.90;;;;;;2057840;28;20049;-90
2021/08/10 01:07:46;;;;;;;2.85;1.70;;;15.90;90.90;;;;;;2073724;28;20048;-90
2021/08/10 01:09:06;;;;;;;3.15;2.10;;;15.90;90.90;;;;;;2066822;28;20538;-89
2021/08/10 01:10:30;;;;;;;4.60;1.75;;;15.90;90.80;;;;;;2074015;28;20042;-90
2021/08/10 01:12:03;;;;;;;2.35;1.60;;;15.90;90.80;;;;;;2065942;28;20066;-89
2021/08/10 01:13:17;;;;;;;3.17;1.65;;;15.90;90.80;;;;;;2065397;28;20049;-90
2021/08/10 01:14:42;;;;;;;3.53;1.80;;;15.90;90.80;;;;;;2068270;28;20061;-93
2021/08/10 01:15:59;;;;;;;2.33;1.60;;;15.90;90.80;;;;;;2072446;28;20067;-93
2021/08/10 01:17:07;;;;;;;3.03;1.92;;;15.90;90.80;;;;;;2076058;28;20088;-90
2021/08/10 01:18:20;;;;;;;2.47;1.80;;;15.90;90.80;;;;;;2065974;28;20078;-90
2021/08/10 01:19:56;;;;;;;2.78;1.73;;;15.90;90.80;;;;;;2070338;28;20041;-90
2021/08/10 01:21:00;;;;;;;4.18;1.60;;;15.90;90.80;;;;;;2072607;28;20452;-89
2021/08/10 01:22:03;;;;;;;3.58;1.85;;;15.90;90.90;;;;;;2066032;28;20566;-89
2021/08/10 01:23:06;;;;;;;2.88;1.85;;;15.90;90.90;;;;;;2067165;28;20046;-90
2021/08/10 01:24:18;;;;;;;3.58;1.65;;;15.80;90.80;;;;;;2073018;28;20045;-87
2021/08/10 01:25:34;;;;;;;2.28;1.63;;;15.90;90.90;;;;;;2068416;28;20054;-90
2021/08/10 01:26:56;;;;;;;2.20;1.65;;;15.90;90.90;;;;;;2074767;28;20057;-90
2021/08/10 01:28:30;;;;;;;4.20;1.75;;;15.90;90.90;;;;;;2078539;28;20030;-90
2021/08/10 01:29:57;;;;;;;2.60;1.80;;;15.80;90.80;;;;;;2088312;28;20040;-87
2021/08/10 01:31:06;;;;;;;3.20;2.00;;;15.80;90.80;;;;;;2083141;28;20031;-91
2021/08/10 01:32:07;;;;;;;3.30;1.67;;;15.80;90.80;;;;;;2084830;28;20049;-86
2021/08/10 01:33:08;;;;;;;3.53;2.00;;;15.80;90.90;;;;;;2074355;28;20078;-90
2021/08/10 01:34:29;;;;;;;3.10;1.73;;;15.80;90.90;;;;;;2067315;28;20043;-88
2021/08/10 01:35:30;;;;;;;;;;;15.80;90.90;;;;;;2076685;28;20052;-89
2021/08/10 01:36:33;;;;;;;2.72;1.77;;;15.80;90.80;;;;;;2083812;28;19916;-90
2021/08/10 01:37:35;;;;;;;4.07;2.05;;;15.80;90.80;;;;;;2075734;28;20026;-89
2021/08/10 01:38:38;;;;;;;5.43;2.20;;;15.80;90.90;;;;;;2059489;28;20022;-89
2021/08/10 01:39:43;;;;;;;3.47;1.90;;;15.80;90.90;;;;;;2057375;28;20035;-91
2021/08/10 01:40:45;;;;;;;2.67;1.73;;;15.80;90.90;;;;;;2063418;28;20092;-90
2021/08/10 01:41:48;;;;;;;3.08;1.95;;;15.80;90.90;;;;;;2051006;28;20082;-90
2021/08/10 01:42:52;;;;;;;3.63;2.00;;;15.80;90.90;;;;;;2051099;28;20047;-90
2021/08/10 01:43:54;;;;;;;3.20;1.95;;;15.80;90.90;;;;;;2065328;28;20045;-90
2021/08/10 01:44:57;;;;;;;2.83;1.83;;;15.80;90.90;;;;;;2069196;28;20058;-91
2021/08/10 01:45:58;;;;;;;3.78;2.30;;;15.80;91.00;;;;;;2063098;28;20031;-90
2021/08/10 01:47:00;;;;;;;3.40;2.33;;;15.80;91.00;;;;;;2065123;28;20034;-90
2021/08/10 01:48:01;;;;;;;3.83;2.17;;;15.80;91.00;;;;;;2054347;28;20045;-90
2021/08/10 01:49:02;;;;;;;3.20;2.20;;;15.80;91.00;;;;;;2041948;29;20043;-90
2021/08/10 01:50:05;;;;;;;3.20;2.00;;;15.80;91.00;;;;;;2042336;28;20040;-90
2021/08/10 01:51:06;;;;;;;3.25;2.00;;;15.80;91.00;;;;;;2056975;28;20093;-91
2021/08/10 01:52:13;;;;;;;4.03;2.03;;;15.80;91.00;;;;;;2065598;28;20065;-90
2021/08/10 01:53:16;;;;;;;3.95;2.30;;;15.80;91.00;;;;;;2066136;28;20129;-90
2021/08/10 01:54:18;;;;;;;2.35;1.80;;;15.80;91.00;;;;;;2063141;28;20166;-90
2021/08/10 01:55:20;;;;;;;3.40;2.17;;;15.80;91.10;;;;;;2057813;28;20550;-90
2021/08/10 01:56:22;;;;;;;2.80;2.00;;;15.80;91.10;;;;;;2057578;28;20046;-90
2021/08/10 01:57:24;;;;;;;3.78;2.40;;;15.80;91.10;;;;;;2057361;28;20050;-90
2021/08/10 01:58:29;;;;;;;3.17;2.15;;;15.80;91.10;;;;;;2066659;28;20040;-91
2021/08/10 01:59:31;;;;;;;2.75;1.92;;;15.80;91.10;;;;;;2073723;28;20038;-91
2021/08/10 02:00:34;;;;;;;2.90;1.90;;;15.80;91.10;;;;;;2057462;28;20030;-91
2021/08/10 02:01:38;;;;;;;2.88;2.00;;;15.80;91.10;;;;;;2056802;28;20038;-91
2021/08/10 02:02:39;;;;;;;4.15;1.80;;;15.80;91.10;;;;;;2062038;28;20034;-91
2021/08/10 02:03:41;;;;;;;4.25;2.20;;;15.80;91.10;;;;;;2056755;28;20039;-91
2021/08/10 02:04:44;;;;;;;3.50;2.03;;;15.80;91.10;;;;;;2055842;28;20252;-91
2021/08/10 02:05:46;;;;;;;3.85;2.20;;;15.90;91.10;;;;;;2060063;28;20033;-91
2021/08/10 02:06:48;;;;;;;2.70;2.00;;;15.90;91.10;;;;;;2068267;28;20069;-91
2021/08/10 02:07:49;;;;;;;3.75;2.25;;;15.90;91.10;;;;;;2064217;28;20034;-91
2021/08/10 02:08:53;;;;;;;3.65;1.90;;;15.90;91.10;;;;;;2049746;28;20118;-90
2021/08/10 02:09:55;;;;;;;3.50;2.25;;;15.90;91.30;;;;;;2058897;28;20026;-91
2021/08/10 02:10:56;;;;;;;2.67;1.95;;;15.90;91.30;;;;;;2058500;28;20035;-90
2021/08/10 02:11:57;;;;;;;3.75;2.20;;;15.90;91.00;;;;;;2065664;28;20162;-90
2021/08/10 02:13:01;;;;;;;3.13;1.83;;;15.90;91.00;;;;;;2058444;28;20031;-91
2021/08/10 02:14:02;;;;;;;3.38;2.10;;;15.90;91.00;;;;;;2047617;28;20040;-91
2021/08/10 02:15:04;;;;;;;3.20;1.90;;;15.90;91.00;;;;;;2059243;28;20059;-91
2021/08/10 02:16:08;;;;;;;3.40;2.03;;;15.90;91.00;;;;;;2056045;28;20094;-91
2021/08/10 02:17:09;;;;;;;3.72;2.30;;;15.90;91.00;;;;;;2051207;28;20488;-90
2021/08/10 02:18:10;;;;;;;3.00;1.77;;;15.90;91.00;;;;;;2065765;28;20046;-91
2021/08/10 02:19:10;;;;;;;4.28;2.10;;;15.90;91.00;;;;;;2057298;28;20031;-91
2021/08/10 02:20:13;;;;;;;4.30;2.03;;;15.90;91.00;;;;;;2060652;28;20046;-91
2021/08/10 02:21:40;;;;;;;3.47;2.28;;;15.90;91.00;;;;;;2071466;28;20539;-91
2021/08/10 02:22:45;;;;;;;4.22;2.15;;;15.90;91.00;;;;;;2068846;28;20696;-91
2021/08/10 02:23:47;;;;;;;2.80;2.10;;;15.90;91.00;;;;;;2065782;28;20036;-91
2021/08/10 02:25:08;;;;;;;3.72;2.10;;;15.90;91.30;;;;;;2066993;28;20114;-90
2021/08/10 02:26:17;;;;;;;4.63;2.15;;;15.90;91.00;;;;;;2060046;28;20034;-91
2021/08/10 02:27:38;;;;;;;4.93;2.20;;;15.90;91.00;;;;;;2059633;28;20184;-91
2021/08/10 02:28:41;;;;;;;3.58;2.10;;;15.90;91.00;;;;;;2069468;28;20057;-91
2021/08/10 02:29:45;;;;;;;3.80;1.88;;;15.90;91.00;;;;;;2065590;28;20041;-91
2021/08/10 02:30:53;;;;;;;2.95;1.90;;;15.80;91.00;;;;;;2050738;28;20043;-91
2021/08/10 02:32:03;;;;;;;4.25;2.10;;;15.90;91.10;;;;;;2059074;28;20039;-91
2021/08/10 02:33:08;;;;;;;4.07;2.20;;;15.80;91.00;;;;;;2058249;28;20034;-91
2021/08/10 02:34:10;;;;;;;3.15;2.20;;;15.90;91.10;;;;;;2075340;28;20096;-91
2021/08/10 02:35:12;;;;;;;3.55;1.88;;;15.90;91.10;;;;;;2065775;28;20030;-90
2021/08/10 02:36:15;;;;;;;3.20;2.00;;;15.90;91.10;;;;;;2052123;28;20034;-90
2021/08/10 02:37:19;;;;;;;3.22;2.00;;;15.90;91.10;;;;;;2058615;28;20043;-90
2021/08/10 02:38:24;;;;;;;3.88;2.15;;;15.80;91.10;;;;;;2043875;28;20036;-91
2021/08/10 02:39:27;;;;;;;4.43;2.00;;;15.80;91.10;;;;;;2060448;28;20031;-90
2021/08/10 02:40:31;;;;;;;2.95;2.08;;;15.80;91.10;;;;;;2074834;28;20139;-91
2021/08/10 02:41:39;;;;;;;2.88;1.90;;;15.80;91.10;;;;;;2061354;28;20117;-91
2021/08/10 02:42:46;;;;;;;3.40;2.03;;;15.80;91.10;;;;;;2060596;28;20538;-90
2021/08/10 02:43:50;;;;;;;3.10;1.98;;;15.80;91.10;;;;;;2066796;28;20098;-91
2021/08/10 02:44:58;;;;;;;3.33;2.20;;;15.80;91.40;;;;;;2075235;28;20034;-90
2021/08/10 02:46:03;;;;;;;3.05;2.15;;;15.80;91.10;;;;;;2074916;28;20041;-90
2021/08/10 02:47:12;;;;;;;3.72;2.17;;;15.80;91.10;;;;;;2074673;28;20034;-91
2021/08/10 02:48:14;;;;;;;3.08;2.20;;;15.80;91.10;;;;;;2059891;28;20043;-91
2021/08/10 02:49:17;;;;;;;3.22;2.17;;;15.80;91.10;;;;;;2058627;28;20405;-91
2021/08/10 02:50:21;;;;;;;3.15;2.00;;;15.80;91.10;;;;;;2064797;28;20046;-90
2021/08/10 02:51:22;;;;;;;2.85;1.70;;;15.80;91.10;;;;;;2066089;28;20620;-91
2021/08/10 02:52:27;;;;;;;3.55;1.98;;;15.80;91.10;;;;;;2050447;29;20050;-90
2021/08/10 02:53:29;;;;;;;3.00;1.88;;;15.80;91.10;;;;;;2054153;28;20448;-91
2021/08/10 02:54:29;;;;;;;4.82;2.30;;;15.80;91.10;;;;;;2058321;28;20039;-91
2021/08/10 02:55:42;;;;;;;3.45;2.20;;;15.80;91.10;;;;;;2041484;29;20284;-91
2021/08/10 02:56:59;;;;;;;2.78;1.95;;;15.80;91.10;;;;;;2061638;28;20428;-89
2021/08/10 02:58:21;;;;;;;4.00;2.00;;;15.80;91.10;;;;;;2067774;28;20516;-90
2021/08/10 02:59:29;;;;;;;4.15;2.10;;;15.80;91.20;;;;;;2076517;28;20059;-90
2021/08/10 03:00:57;;;;;;;3.60;1.83;;;15.80;91.10;;;;;;2072097;28;20042;-90
2021/08/10 03:02:07;;;;;;;2.80;1.80;;;15.80;91.10;;;;;;2064747;28;20038;-91
2021/08/10 03:03:16;;;;;;;2.88;2.00;;;15.70;91.10;;;;;;2075760;28;20057;-91
2021/08/10 03:04:20;;;;;;;3.88;1.98;;;15.70;91.10;;;;;;2066312;28;20547;-91
2021/08/10 03:05:29;;;;;;;3.28;2.20;;;15.80;91.10;;;;;;2061107;28;20058;-90
2021/08/10 03:06:34;;;;;;;3.80;2.20;;;15.70;91.40;;;;;;2074294;28;20140;-91
2021/08/10 03:07:40;;;;;;;3.47;2.20;;;15.70;91.10;;;;;;2081915;28;20195;-90
2021/08/10 03:09:02;;;;;;;3.25;1.73;;;15.70;91.20;;;;;;2074382;28;20088;-91
2021/08/10 03:10:15;;;;;;;3.92;2.00;;;15.70;91.10;;;;;;2074540;28;20542;-90
2021/08/10 03:11:21;;;;;;;3.67;2.00;;;15.70;91.20;;;;;;2059091;28;20471;-90
2021/08/10 03:12:26;;;;;;;3.75;2.00;;;15.70;91.20;;;;;;2057213;28;20038;-91
2021/08/10 03:13:35;;;;;;;4.50;2.15;;;15.70;91.20;;;;;;2053135;28;20505;-90
2021/08/10 03:14:36;;;;;;;3.22;1.88;;;15.70;91.20;;;;;;2067361;28;20077;-90
2021/08/10 03:15:40;;;;;;;2.92;2.05;;;15.60;91.10;;;;;;2066881;28;20045;-90
2021/08/10 03:16:44;;;;;;;3.80;2.20;;;15.70;91.20;;;;;;2064965;28;20058;-90
2021/08/10 03:17:50;;;;;;;4.45;2.20;;;15.70;91.20;;;;;;2058820;28;20039;-90
2021/08/10 03:18:52;;;;;;;3.75;2.20;;;15.70;91.20;;;;;;2064598;28;20034;-90
2021/08/10 03:19:56;;;;;;;3.63;2.20;;;15.70;91.20;;;;;;2074497;28;20423;-90
2021/08/10 03:21:00;;;;;;;3.28;2.17;;;15.70;91.20;;;;;;2066135;28;20096;-90
2021/08/10 03:22:01;;;;;;;4.43;2.10;;;15.70;91.20;;;;;;2058965;28;20035;-90
2021/08/10 03:23:03;;;;;;;2.80;1.88;;;15.70;91.20;;;;;;2049427;28;20098;-90
2021/08/10 03:24:06;;;;;;;5.55;2.25;;;15.70;91.20;;;;;;2050448;28;20028;-90
2021/08/10 03:25:09;;;;;;;3.50;2.13;;;15.70;91.20;;;;;;2050202;28;20082;-90
2021/08/10 03:26:14;;;;;;;4.85;2.00;;;15.70;91.20;;;;;;2040854;28;20406;-90
2021/08/10 03:27:16;;;;;;;3.30;2.10;;;15.70;91.20;;;;;;2067533;28;20520;-90
2021/08/10 03:28:19;;;;;;;3.17;2.10;;;15.60;91.20;;;;;;2049895;28;20162;-90
2021/08/10 03:29:27;;;;;;;3.63;2.20;;;15.70;91.20;;;;;;2060865;28;20537;-91
2021/08/10 03:30:32;;;;;;;3.28;1.90;;;15.60;91.50;;;;;;2066618;28;20104;-91
2021/08/10 03:31:37;;;;;;;4.05;2.15;;;15.60;91.20;;;;;;2057729;28;20102;-90
2021/08/10 03:32:45;;;;;;;4.75;2.28;;;15.60;91.20;;;;;;2067884;28;20077;-90
2021/08/10 03:33:47;;;;;;;3.75;2.10;;;15.60;91.30;;;;;;2063316;28;20035;-91
2021/08/10 03:34:50;;;;;;;3.55;2.10;;;15.60;91.30;;;;;;2058282;28;20035;-90
2021/08/10 03:35:51;;;;;;;2.95;1.92;;;15.60;91.30;;;;;;2056196;28;20072;-91
2021/08/10 03:36:54;;;;;;;4.22;1.90;;;15.60;91.30;;;;;;2065147;28;20077;-91
2021/08/10 03:37:55;;;;;;;3.33;1.98;;;15.60;91.30;;;;;;2073251;28;20480;-90
2021/08/10 03:38:57;;;;;;;3.28;2.08;;;15.60;91.30;;;;;;2050242;28;20505;-90
2021/08/10 03:40:00;;;;;;;3.10;2.10;;;15.60;91.30;;;;;;2047323;28;20477;-90
2021/08/10 03:41:04;;;;;;;3.30;1.85;;;15.60;91.30;;;;;;2063674;28;20077;-90
2021/08/10 03:42:07;;;;;;;3.13;1.90;;;15.60;91.30;;;;;;2064876;28;20047;-92
2021/08/10 03:43:11;;;;;;;3.85;2.17;;;15.60;91.30;;;;;;2058360;28;20035;-91
2021/08/10 03:44:20;;;;;;;5.43;2.40;;;15.60;91.30;;;;;;2065947;28;20034;-91
2021/08/10 03:45:25;;;;;;;3.15;2.05;;;15.50;91.30;;;;;;2067485;28;20078;-90
2021/08/10 03:46:30;;;;;;;3.47;2.05;;;15.50;91.30;;;;;;2064986;28;20042;-91
2021/08/10 03:47:36;;;;;;;2.58;1.88;;;15.50;91.30;;;;;;2068852;28;20049;-91
2021/08/10 03:48:43;;;;;;;3.53;1.80;;;15.50;91.30;;;;;;2058604;28;20073;-91
2021/08/10 03:49:46;;;;;;;3.90;2.15;;;15.50;91.30;;;;;;2060041;28;20034;-91
2021/08/10 03:50:55;;;;;;;3.88;2.17;;;15.50;91.30;;;;;;2057186;28;20086;-91
2021/08/10 03:51:55;;;;;;;3.00;1.90;;;15.50;91.30;;;;;;2065860;28;20046;-90
2021/08/10 03:52:58;;;;;;;4.00;2.15;;;15.50;91.30;;;;;;2065373;28;20081;-91
2021/08/10 03:53:59;;;;;;;5.47;2.30;;;15.50;91.30;;;;;;2058431;28;20039;-90
2021/08/10 03:55:08;;;;;;;3.00;1.95;;;15.50;91.30;;;;;;2057827;28;20137;-90
2021/08/10 03:56:34;;;;;;;4.90;2.30;;;15.60;91.30;;;;;;2065743;28;20208;-91
2021/08/10 03:57:36;;;;;;;4.13;1.92;;;15.50;91.30;;;;;;2071995;28;20060;-91
2021/08/10 03:58:48;;;;;;;3.85;1.92;;;15.50;91.30;;;;;;2075381;28;20058;-92
2021/08/10 03:59:55;;;;;;;3.55;2.30;;;15.50;91.20;;;;;;2063704;28;20034;-91
2021/08/10 04:00:56;;;;;;;3.55;2.13;;;15.60;91.30;;;;;;2058478;28;20047;-91
2021/08/10 04:01:58;;;;;;;3.70;2.10;;;15.50;91.30;;;;;;2072943;28;20119;-91
2021/08/10 04:03:00;;;;;;;3.00;1.77;;;15.50;91.30;;;;;;2062998;28;20073;-91
2021/08/10 04:04:04;;;;;;;4.82;2.00;;;15.50;91.30;;;;;;2057796;28;20164;-90
2021/08/10 04:05:05;;;;;;;2.58;1.88;;;15.50;91.30;;;;;;2051061;28;20099;-91
2021/08/10 04:06:08;;;;;;;3.22;2.20;;;15.50;91.30;;;;;;2066071;28;20109;-91
2021/08/10 04:07:14;;;;;;;3.10;1.90;;;15.50;91.30;;;;;;2072748;28;20084;-91
2021/08/10 04:08:16;;;;;;;4.30;2.30;;;15.50;91.30;;;;;;2065620;28;20034;-90
2021/08/10 04:09:18;;;;;;;2.72;1.85;;;15.50;91.30;;;;;;2050615;28;20035;-90
2021/08/10 04:10:18;;;;;;;3.35;2.25;;;15.50;91.30;;;;;;2049104;28;20094;-91
2021/08/10 04:11:23;;;;;;;3.88;1.92;;;15.50;91.30;;;;;;2065192;28;20112;-92
2021/08/10 04:12:25;;;;;;;3.28;1.90;;;15.50;91.30;;;;;;2065797;28;20078;-91
2021/08/10 04:13:26;;;;;;;4.05;2.10;;;15.50;91.30;;;;;;2059134;28;20097;-91
2021/08/10 04:14:45;;;;;;;3.58;1.92;;;15.50;91.30;;;;;;2071937;28;20042;-91
2021/08/10 04:15:50;;;;;;;3.30;1.80;;;15.50;91.30;;;;;;2066588;28;20049;-91
2021/08/10 04:17:05;;;;;;;3.08;1.88;;;15.50;91.30;;;;;;2066416;28;20480;-91
2021/08/10 04:18:12;;;;;;;3.28;1.63;;;15.40;91.30;;;;;;2060421;28;20482;-92
2021/08/10 04:19:38;;;;;;;3.42;1.80;;;15.40;91.30;;;;;;2065089;28;20431;-91
2021/08/10 04:20:41;;;;;;;4.03;1.83;;;15.40;91.30;;;;;;2061905;28;20034;-91
2021/08/10 04:21:43;;;;;;;3.90;1.92;;;15.40;91.30;;;;;;2065555;28;20129;-91
2021/08/10 04:22:44;;;;;;;2.53;1.55;;;15.40;91.30;;;;;;2065420;28;20031;-90
2021/08/10 04:23:44;;;;;;;2.53;1.70;;;15.40;91.30;;;;;;2056712;28;20050;-91
2021/08/10 04:24:46;;;;;;;2.60;1.88;;;15.40;91.30;;;;;;2051629;28;20035;-91
2021/08/10 04:25:46;;;;;;;3.45;1.95;;;15.40;91.40;;;;;;2068568;28;20436;-91
2021/08/10 04:26:47;;;;;;;2.67;1.70;;;15.40;91.40;;;;;;2055149;28;20083;-91
2021/08/10 04:27:48;;;;;;;3.60;1.88;;;15.40;91.40;;;;;;2068443;28;20035;-90
2021/08/10 04:28:49;;;;;;;2.72;1.70;;;15.40;91.40;;;;;;2078712;28;20073;-91
2021/08/10 04:29:51;;;;;;;2.42;1.67;;;15.40;91.40;;;;;;2051783;28;20047;-91
2021/08/10 04:30:52;;;;;;;2.97;1.77;;;15.40;91.40;;;;;;2066919;28;20046;-91
2021/08/10 04:31:52;;;;;;;4.55;2.17;;;15.40;91.40;;;;;;2068784;28;20042;-90
2021/08/10 04:32:53;;;;;;;2.97;1.88;;;15.40;91.40;;;;;;2067900;28;20038;-90
2021/08/10 04:33:54;;;;;;;4.25;2.05;;;15.40;91.40;;;;;;2063752;28;20046;-91
2021/08/10 04:34:54;;;;;;;3.25;1.90;;;15.40;91.40;;;;;;2059855;28;20401;-90
2021/08/10 04:35:55;;;;;;;2.67;1.80;;;15.40;91.40;;;;;;2068037;28;20042;-91
2021/08/10 04:36:56;;;;;;;2.35;1.65;;;15.40;91.40;;;;;;2059096;28;20035;-90
2021/08/10 04:37:56;;;;;;;3.35;1.67;;;15.40;91.40;;;;;;2052856;29;20043;-91
2021/08/10 04:38:57;;;;;;;2.42;1.60;;;15.30;91.40;;;;;;2059609;28;20050;-91
2021/08/10 04:39:57;;;;;;;5.20;1.80;;;15.40;91.40;;;;;;2056305;28;20067;-90
2021/08/10 04:40:58;;;;;;;3.38;1.95;;;15.40;91.40;;;;;;2057763;28;20038;-91
2021/08/10 04:41:59;;;;;;;3.00;1.80;;;15.40;91.40;;;;;;2054378;28;20102;-91
2021/08/10 04:43:00;;;;;;;3.30;1.73;;;15.40;91.40;;;;;;2057452;28;20057;-91
2021/08/10 04:44:00;;;;;;;2.80;1.63;;;15.40;91.40;;;;;;2065540;28;20035;-91
2021/08/10 04:45:02;;;;;;;3.33;1.67;;;15.30;91.40;;;;;;2057191;28;20465;-90
2021/08/10 04:46:02;;;;;;;3.47;1.67;;;15.30;91.40;;;;;;2065806;28;20121;-91
2021/08/10 04:47:03;;;;;;;2.78;1.70;;;15.40;91.40;;;;;;2057833;28;20497;-91
2021/08/10 04:48:04;;;;;;;2.60;1.65;;;15.30;91.40;;;;;;2050167;28;20067;-91
2021/08/10 04:49:05;;;;;;;4.05;1.73;;;15.30;91.40;;;;;;2042327;28;20128;-91
2021/08/10 04:50:06;;;;;;;2.60;1.42;;;15.30;91.40;;;;;;2057730;28;20095;-90
2021/08/10 04:51:07;;;;;;;2.95;1.70;;;15.40;91.40;;;;;;2066168;28;20051;-90
2021/08/10 04:52:07;;;;;;;2.90;1.85;;;15.40;91.40;;;;;;2055518;28;20046;-91
2021/08/10 04:53:08;;;;;;;2.90;1.90;;;15.30;91.40;;;;;;2058529;28;20078;-91
2021/08/10 04:54:15;;;;;;;2.80;1.63;;;15.40;91.40;;;;;;2057377;28;20061;-91
2021/08/10 04:55:15;;;;;;;3.33;1.88;;;15.30;91.40;;;;;;2053849;28;20071;-91
2021/08/10 04:56:16;;;;;;;3.13;1.90;;;15.30;91.40;;;;;;2053383;28;20032;-91
2021/08/10 04:57:17;;;;;;;2.45;1.50;;;15.30;91.40;;;;;;2059288;28;20058;-91
2021/08/10 04:58:17;;;;;;;3.92;2.00;;;15.30;91.40;;;;;;2065500;28;20181;-90
2021/08/10 04:59:18;;;;;;;3.25;2.08;;;15.30;91.40;;;;;;2072553;28;20030;-91
2021/08/10 05:00:19;;;;;;;4.00;2.08;;;15.40;91.40;;;;;;2061718;28;20031;-91
2021/08/10 05:01:19;;;;;;;3.25;1.90;;;15.40;91.40;;;;;;2049774;28;20071;-90
2021/08/10 05:02:20;;;;;;;3.97;1.75;;;15.30;91.40;;;;;;2065173;28;20041;-91
2021/08/10 05:03:20;;;;;;;2.33;1.58;;;15.30;91.70;;;;;;2057134;28;20121;-90
2021/08/10 05:04:21;;;;;;;2.90;1.80;;;15.40;91.40;;;;;;2065031;28;20540;-91
2021/08/10 05:05:22;;;;;;;3.60;2.00;;;15.30;91.40;;;;;;2065986;28;20074;-90
2021/08/10 05:06:24;;;;;;;3.40;1.92;;;15.40;91.40;;;;;;2060117;28;20140;-89
2021/08/10 05:07:25;;;;;;;3.53;1.52;;;15.40;91.40;;;;;;2056280;28;20074;-89
2021/08/10 05:08:26;;;;;;;3.60;1.90;;;15.40;91.40;;;;;;2044731;28;20051;-90
2021/08/10 05:09:26;;;;;;;4.38;1.67;;;15.40;91.40;;;;;;2057475;28;20539;-88
2021/08/10 05:10:27;;;;;;;2.85;1.60;;;15.40;91.40;;;;;;2058998;28;20076;-89
2021/08/10 05:11:28;;;;;;;3.35;1.45;;;15.40;91.40;;;;;;2066633;28;20030;-88
2021/08/10 05:12:28;;;;;;;3.25;1.90;;;15.40;91.40;;;;;;2055424;28;20034;-90
2021/08/10 05:13:30;;;;;;;3.60;1.73;;;15.40;91.40;;;;;;2064075;28;20137;-91
2021/08/10 05:14:31;;;;;;;3.47;1.80;;;15.40;91.60;;;;;;2065637;28;20041;-91
2021/08/10 05:15:32;;;;;;;2.95;1.70;;;15.40;91.30;;;;;;2052966;28;20043;-91
2021/08/10 05:16:33;;;;;;;3.45;1.60;;;15.40;91.30;;;;;;2064418;28;20090;-90
2021/08/10 05:17:33;;;;;;;3.00;1.80;;;15.40;91.30;;;;;;2048493;28;20731;-90
2021/08/10 05:18:34;;;;;;;3.85;2.03;;;15.40;91.30;;;;;;2065088;28;20041;-90
2021/08/10 05:19:35;;;;;;;3.17;1.60;;;15.50;91.30;;;;;;2057882;28;20053;-90
2021/08/10 05:20:36;;;;;;;2.95;1.70;;;15.40;91.30;;;;;;2046037;28;20494;-90
2021/08/10 05:21:37;;;;;;;2.65;1.75;;;15.50;91.30;;;;;;2057862;28;20141;-89
2021/08/10 05:22:38;;;;;;;4.32;1.77;;;15.50;91.30;;;;;;2058290;28;20532;-90
2021/08/10 05:23:38;;;;;;;3.78;2.05;;;15.50;91.30;;;;;;2064778;28;20451;-91
2021/08/10 05:24:40;;;;;;;3.75;1.80;;;15.50;91.30;;;;;;2058631;28;20132;-91
2021/08/10 05:25:41;;;;;;;2.67;1.75;;;15.60;91.20;;;;;;2049025;28;20123;-91
2021/08/10 05:26:41;;;;;;;2.92;1.90;;;15.60;91.20;;;;;;2058010;28;20053;-89
2021/08/10 05:27:42;;;;;;;3.15;1.55;;;15.60;91.20;;;;;;2052568;28;20433;-89
2021/08/10 05:28:43;;;;;;;3.45;1.90;;;15.70;91.20;;;;;;2058131;28;20062;-90
2021/08/10 05:29:44;;;;;;;2.60;1.52;;;15.70;91.10;;;;;;2057081;28;20043;-90
2021/08/10 05:30:44;;;;;;;3.03;1.58;;;15.70;91.10;;;;;;2049557;28;20035;-87
2021/08/10 05:31:45;;;;;;;3.40;1.70;;;15.70;91.00;;;;;;2055847;28;20497;-89
2021/08/10 05:32:46;;;;;;;2.90;1.83;;;15.80;91.00;;;;;;2056490;28;20038;-89
2021/08/10 05:33:46;;;;;;;3.63;1.80;;;15.80;91.00;;;;;;2064286;28;20555;-89
2021/08/10 05:34:47;;;;;;;2.35;1.40;;;15.80;91.20;;;;;;2049343;28;20046;-88
2021/08/10 05:35:48;;;;;;;3.05;1.60;;;15.80;91.00;;;;;;2041243;28;20048;-89
2021/08/10 05:36:51;;;;;;;2.67;1.70;;;15.80;90.90;;;;;;2056828;28;20035;-88
2021/08/10 05:37:52;;;;;;;2.92;1.70;;;15.80;90.90;;;;;;2057887;28;20066;-89